Time;durP1;ratioP1;P1;durP2;ratioP2;P2;SDS_P1;SDS_P2;PMS_P1;PMS_P2;Temp;Humidity;BMP_temperature;BMP_pressure;BME280_temperature;BME280_humidity;BME280_pressure;Samples;Min_cycle;Max_cycle;Signal;HPM_P1;HPM_P2
2021/11/25 00:00:47;;;;;;;;;;;;;;;2.40;71.27;99223.63;4979660;28;20020;-83
2021/11/25 00:03:13;;;;;;;;;;;;;;;2.39;70.97;99221.91;4982373;28;20436;-84
2021/11/25 00:05:38;;;;;;;;;;;;;;;2.41;71.01;99225.34;4983563;28;19926;-84
2021/11/25 00:08:04;;;;;;;;;;;;;;;2.44;70.97;99212.22;4979965;28;19976;-85
2021/11/25 00:10:30;;;;;;;;;;;;;;;2.43;70.68;99213.13;4982714;28;20369;-83
2021/11/25 00:12:55;;;;;;;;;;;;;;;2.43;70.70;99213.97;4982743;28;19917;-85
2021/11/25 00:15:21;;;;;;;;;;;;;;;2.44;70.58;99210.47;4981248;28;20506;-83
2021/11/25 00:17:46;;;;;;;;;;;;;;;2.47;70.59;99204.31;4982057;28;20251;-85
2021/11/25 00:20:12;;;;;;;;;;;;;;;2.48;70.67;99200.81;4983857;28;20005;-86
2021/11/25 00:22:38;;;;;;;;;;;;;;;2.46;70.54;99186.91;4982353;28;20259;-84
2021/11/25 00:25:04;;;;;;;;;;;;;;;2.45;70.64;99188.66;4983029;28;19918;-84
2021/11/25 00:27:29;;;;;;;;;;;;;;;2.49;71.04;99194.66;4983775;28;19940;-87
2021/11/25 00:29:54;;;;;;;;;;;;;;;2.51;71.04;99198.13;4982186;28;20286;-83
2021/11/25 00:32:19;;;;;;;;;;;;;;;2.49;70.81;99192.94;4980598;28;19929;-84
2021/11/25 00:34:45;;;;;;;;;;;;;;;2.51;70.67;99196.38;4982455;28;20369;-86
2021/11/25 00:37:10;;;;;;;;;;;;;;;2.49;70.71;99200.78;4982554;28;19945;-83
2021/11/25 00:39:36;;;;;;;;;;;;;;;2.53;70.91;99199.81;4983602;28;20358;-83
2021/11/25 00:42:01;;;;;;;;;;;;;;;2.53;71.16;99198.97;4982997;28;19926;-82
2021/11/25 00:44:26;;;;;;;;;;;;;;;2.56;71.34;99198.91;4981785;28;19917;-85
2021/11/25 00:46:52;;;;;;;;;;;;;;;2.55;71.17;99191.94;4982241;28;19922;-85
2021/11/25 00:49:17;;;;;;;;;;;;;;;2.54;70.96;99190.22;4981873;28;20381;-85
2021/11/25 00:51:42;;;;;;;;;;;;;;;2.60;71.15;99184.88;4982967;28;19948;-84
2021/11/25 00:54:08;;;;;;;;;;;;;;;2.87;73.05;99186.06;4983225;28;19965;-85
2021/11/25 00:56:33;;;;;;;;;;;;;;;3.04;75.62;99182.22;4978911;28;19922;-83
2021/11/25 00:58:58;;;;;;;;;;;;;;;3.16;77.93;99176.72;4977329;28;19929;-86
2021/11/25 01:01:24;;;;;;;;;;;;;;;3.23;79.75;99175.69;4980128;28;19918;-84
2021/11/25 04:14:11;;;;;;;;;;;;;;;3.46;95.10;99072.13;5467755;23;19926;-84
2021/11/25 04:16:36;;;;;;;;;;;;;;;3.46;94.60;99074.75;4932468;29;19923;-84
2021/11/25 04:19:02;;;;;;;;;;;;;;;3.27;94.20;99087.44;4938201;28;19918;-84
2021/11/25 04:21:27;;;;;;;;;;;;;;;3.23;94.01;99094.50;4937683;29;19919;-87
2021/11/25 04:23:52;;;;;;;;;;;;;;;3.27;94.14;99085.69;4954730;28;20012;-87
2021/11/25 04:26:18;;;;;;;;;;;;;;;3.20;94.53;99089.34;4954508;28;19918;-88
2021/11/25 04:28:43;;;;;;;;;;;;;;;3.22;95.06;99091.91;4953377;28;19946;-85
2021/11/25 04:36:36;;;;;;;;;;;;;;;3.07;94.85;99094.00;4954824;28;20369;-84
2021/11/25 04:39:05;;;;;;;;;;;;;;;3.02;94.66;99097.66;4937350;28;20329;-84
2021/11/25 04:41:30;;;;;;;;;;;;;;;3.07;94.25;99094.00;4952689;28;19977;-86
2021/11/25 04:43:55;;;;;;;;;;;;;;;3.04;93.71;99085.38;4935768;29;20004;-84
2021/11/25 04:46:21;;;;;;;;;;;;;;;2.96;93.28;99087.31;4954296;28;20266;-84
2021/11/25 04:48:46;;;;;;;;;;;;;;;2.93;92.89;99080.38;4938105;29;20036;-84
2021/11/25 04:51:11;;;;;;;;;;;;;;;2.79;92.57;99079.84;4937179;29;19922;-87
2021/11/25 04:53:37;;;;;;;;;;;;;;;2.77;92.51;99085.09;4947385;29;19918;-90
2021/11/25 04:56:02;;;;;;;;;;;;;;;2.81;91.89;99085.88;4937040;29;19922;-87
2021/11/25 04:58:27;;;;;;;;;;;;;;;2.76;91.33;99080.78;4952805;28;19918;-83
2021/11/25 05:00:53;;;;;;;;;;;;;;;2.67;90.66;99081.84;4932466;29;19989;-83
2021/11/25 05:03:18;;;;;;;;;;;;;;;2.68;90.29;99073.09;4936777;28;19918;-91
2021/11/25 05:05:43;;;;;;;;;;;;;;;2.68;89.87;99067.88;4936835;29;20358;-84
2021/11/25 05:08:09;;;;;;;;;;;;;;;2.70;90.38;99060.84;4936811;29;19918;-87
2021/11/25 05:10:35;;;;;;;;;;;;;;;2.90;93.43;99057.78;4937491;29;20042;-87
2021/11/25 05:13:00;;;;;;;;;;;;;;;2.88;94.29;99061.31;4936304;29;20217;-85
2021/11/25 05:15:25;;;;;;;;;;;;;;;2.81;94.52;99063.22;4936920;29;19935;-89
2021/11/25 05:17:51;;;;;;;;;;;;;;;2.73;94.70;99068.63;4937523;29;19966;-91
2021/11/25 05:20:17;;;;;;;;;;;;;;;2.69;94.64;99059.09;4936916;28;19976;-90
2021/11/25 05:22:42;;;;;;;;;;;;;;;2.69;94.79;99061.72;4936147;29;19993;-90
2021/11/25 05:25:09;;;;;;;;;;;;;;;2.67;94.22;99047.81;4953365;28;19918;-90
2021/11/25 05:27:34;;;;;;;;;;;;;;;2.56;94.06;99060.28;4932689;29;20277;-83
2021/11/25 05:29:59;;;;;;;;;;;;;;;2.53;93.74;99052.50;4935523;29;19915;-95
2021/11/25 05:32:25;;;;;;;;;;;;;;;2.46;93.50;99056.16;4953990;28;19929;-83
2021/11/25 05:34:50;;;;;;;;;;;;;;;2.46;93.32;99058.78;4936796;29;20287;-93
2021/11/25 05:37:17;;;;;;;;;;;;;;;2.48;93.02;99056.97;4936537;28;19925;-87
2021/11/25 05:39:42;;;;;;;;;;;;;;;2.44;92.40;99055.31;4935865;29;19918;-88
2021/11/25 05:42:08;;;;;;;;;;;;;;;2.35;92.19;99053.75;4936528;29;19921;-83
2021/11/25 05:44:33;;;;;;;;;;;;;;;2.33;92.05;99045.94;4951796;29;20370;-85
2021/11/25 05:46:58;;;;;;;;;;;;;;;2.29;91.78;99044.28;4936554;29;19941;-85
2021/11/25 05:49:24;;;;;;;;;;;;;;;2.26;91.57;99039.13;4936642;28;19997;-86
2021/11/25 05:51:49;;;;;;;;;;;;;;;2.26;91.25;99038.25;4936591;29;19926;-88
2021/11/25 05:54:14;;;;;;;;;;;;;;;2.19;91.19;99037.53;4937074;28;19938;-84
2021/11/25 05:56:39;;;;;;;;;;;;;;;2.20;90.86;99039.25;4940448;29;19925;-83
2021/11/25 05:59:05;;;;;;;;;;;;;;;2.28;90.47;99032.13;4956340;28;20008;-92
2021/11/25 06:01:30;;;;;;;;;;;;;;;2.15;89.96;99038.47;4957623;28;19919;-84
2021/11/25 06:03:55;;;;;;;;;;;;;;;2.19;90.03;99040.16;4935574;29;19933;-84
2021/11/25 08:51:50;;;;;;;;;;;;;;;1.71;79.79;99137.72;5179293;23;19930;-83
2021/11/25 08:54:15;;;;;;;;;;;;;;;1.73;79.90;99133.34;4937948;29;20278;-90
2021/11/25 08:56:41;;;;;;;;;;;;;;;1.72;79.80;99135.97;4937493;29;19925;-86
2021/11/25 08:59:06;;;;;;;;;;;;;;;1.71;79.64;99129.91;4932518;29;20122;-83
2021/11/25 09:01:31;;;;;;;;;;;;;;;1.72;79.55;99128.97;4936912;29;20021;-88
2021/11/25 09:03:56;;;;;;;;;;;;;;;1.71;79.23;99122.06;4936868;29;19925;-84
2021/11/25 09:06:22;;;;;;;;;;;;;;;1.74;79.04;99113.28;4952730;28;19922;-83
2021/11/25 09:08:47;;;;;;;;;;;;;;;1.75;79.15;99115.03;4954116;28;19993;-84
2021/11/25 09:11:15;;;;;;;;;;;;;;;1.79;79.21;99127.16;4953976;29;20396;-84
2021/11/25 09:13:41;;;;;;;;;;;;;;;1.80;79.01;99118.41;4953487;28;20005;-84
2021/11/25 09:16:06;;;;;;;;;;;;;;;1.77;78.86;99121.06;4953680;28;19972;-84
2021/11/25 09:18:31;;;;;;;;;;;;;;;1.77;78.76;99118.47;4953907;28;20354;-86
2021/11/25 09:20:57;;;;;;;;;;;;;;;1.80;78.78;99126.25;4935509;29;19918;-88
2021/11/25 09:23:22;;;;;;;;;;;;;;;1.78;78.60;99120.19;4953852;28;19926;-86
2021/11/25 09:25:50;;;;;;;;;;;;;;;1.80;78.45;99113.19;4937126;29;19958;-84
2021/11/25 09:28:20;;;;;;;;;;;;;;;1.79;78.45;99108.88;4932568;28;19974;-84
2021/11/25 09:30:46;;;;;;;;;;;;;;;1.79;78.22;99124.53;4939673;29;19918;-86
2021/11/25 09:33:12;;;;;;;;;;;;;;;1.80;78.37;99107.94;4957813;28;19922;-86
2021/11/25 09:35:37;;;;;;;;;;;;;;;1.85;78.44;99105.25;4956094;28;19946;-85
2021/11/25 09:38:03;;;;;;;;;;;;;;;1.87;78.46;99096.53;4940553;29;20386;-84
2021/11/25 09:40:28;;;;;;;;;;;;;;;1.86;78.11;99088.72;4940478;28;20025;-83
2021/11/25 09:42:59;;;;;;;;;;;;;;;1.86;78.20;99086.94;4940442;29;19958;-83
2021/11/25 09:45:25;;;;;;;;;;;;;;;1.91;78.07;99082.50;4951880;28;20033;-89
2021/11/25 09:47:55;;;;;;;;;;;;;;;1.89;77.96;99076.44;4951539;28;19918;-93
2021/11/25 09:50:21;;;;;;;;;;;;;;;1.90;77.69;99079.91;4956284;28;19919;-91
2021/11/25 09:52:48;;;;;;;;;;;;;;;1.90;77.52;99078.19;4940153;29;19970;-88
2021/11/25 09:55:14;;;;;;;;;;;;;;;1.94;77.47;99084.19;4940172;28;19929;-84
2021/11/25 09:57:39;;;;;;;;;;;;;;;1.96;77.40;99077.19;4957252;29;19918;-83
2021/11/25 10:00:05;;;;;;;;;;;;;;;1.94;77.25;99086.81;4940060;29;19930;-84
2021/11/25 10:02:30;;;;;;;;;;;;;;;1.96;77.12;99078.06;4939947;28;19923;-90
2021/11/25 10:04:56;;;;;;;;;;;;;;;1.99;76.97;99084.97;4949706;28;20050;-84
2021/11/25 10:07:28;;;;;;;;;;;;;;;1.98;76.73;99089.34;4939832;29;20021;-92
2021/11/25 10:09:53;;;;;;;;;;;;;;;1.98;76.69;99080.66;4955211;28;20060;-85
2021/11/25 10:12:26;;;;;;;;;;;;;;;1.99;76.68;99083.22;4956834;28;19935;-83
2021/11/25 10:14:51;;;;;;;;;;;;;;;1.97;76.45;99090.22;4956949;29;20005;-84
2021/11/25 10:17:36;;;;;;;;;;;;;;;1.99;76.46;99096.31;4939693;29;20338;-84
2021/11/25 10:20:06;;;;;;;;;;;;;;;2.03;76.47;99089.25;4955581;28;19918;-85
2021/11/25 10:22:31;;;;;;;;;;;;;;;2.03;76.28;99088.38;4955186;28;20363;-84
2021/11/25 10:24:58;;;;;;;;;;;;;;;2.02;76.23;99081.44;4956940;28;19926;-84
2021/11/25 10:27:25;;;;;;;;;;;;;;;2.02;75.99;99087.53;4938854;28;19925;-83
2021/11/25 10:30:09;;;;;;;;;;;;;;;2.06;75.93;99093.53;4955441;28;19993;-83
2021/11/25 10:32:35;;;;;;;;;;;;;;;2.06;75.98;99093.53;4939463;29;19973;-85
2021/11/25 10:35:24;;;;;;;;;;;;;;;2.10;75.96;99098.69;4938098;29;19918;-88
2021/11/25 10:40:30;;;;;;;;;;;;;;;2.10;75.44;99100.44;4955865;28;19945;-84
2021/11/25 10:42:56;;;;;;;;;;;;;;;2.12;75.59;99096.94;4956723;28;19923;-85
2021/11/25 10:45:21;;;;;;;;;;;;;;;2.16;75.54;99095.94;4956467;28;20365;-83
2021/11/25 10:47:56;;;;;;;;;;;;;;;2.14;75.41;99097.75;4939284;29;20187;-84
2021/11/25 10:50:21;;;;;;;;;;;;;;;2.14;75.22;99092.53;4955040;29;19968;-86
2021/11/25 10:52:48;;;;;;;;;;;;;;;2.15;75.11;99088.13;4939011;29;19965;-84
2021/11/25 10:55:17;;;;;;;;;;;;;;;2.16;75.09;99089.88;4939081;29;20352;-83
2021/11/25 10:57:42;;;;;;;;;;;;;;;2.21;75.01;99085.41;4956102;28;19925;-84
2021/11/25 11:00:21;;;;;;;;;;;;;;;2.21;74.92;99085.41;4939394;29;19923;-85
2021/11/25 11:02:47;;;;;;;;;;;;;;;2.24;74.98;99087.97;4938233;29;20034;-84
2021/11/25 11:05:15;;;;;;;;;;;;;;;2.25;74.75;99086.19;4954830;29;20034;-83
2021/11/25 11:07:44;;;;;;;;;;;;;;;2.28;74.67;99088.75;4956114;28;19922;-84
2021/11/25 11:10:37;;;;;;;;;;;;;;;2.33;74.83;99081.66;4954319;28;19930;-84
2021/11/25 11:13:21;;;;;;;;;;;;;;;2.26;74.50;99090.56;4951358;28;20454;-85
2021/11/25 11:16:12;;;;;;;;;;;;;;;2.28;74.52;99083.53;4938653;29;19922;-89
2021/11/25 11:18:47;;;;;;;;;;;;;;;2.29;74.53;99086.13;4937768;28;19931;-84
2021/11/25 11:21:31;;;;;;;;;;;;;;;2.34;74.39;99088.63;4953167;29;19930;-88
2021/11/25 11:23:58;;;;;;;;;;;;;;;2.33;74.33;99087.78;4955904;28;19926;-84
2021/11/25 11:26:23;;;;;;;;;;;;;;;2.34;74.28;99084.25;4938358;28;19950;-83
2021/11/25 11:28:48;;;;;;;;;;;;;;;2.38;74.33;99086.81;4955723;28;19981;-84
2021/11/25 11:31:14;;;;;;;;;;;;;;;2.39;74.30;99086.78;4938417;29;19918;-86
2021/11/25 11:33:40;;;;;;;;;;;;;;;2.39;74.26;99092.00;4955491;28;20057;-84
2021/11/25 11:36:05;;;;;;;;;;;;;;;2.43;74.06;99085.00;4954339;28;19965;-86
2021/11/25 11:38:32;;;;;;;;;;;;;;;2.42;74.07;99088.47;4954842;28;19930;-84
2021/11/25 11:40:58;;;;;;;;;;;;;;;2.41;73.85;99078.91;4955330;28;19926;-84
2021/11/25 11:43:24;;;;;;;;;;;;;;;2.42;73.85;99083.25;4955122;28;19925;-84
2021/11/25 11:45:49;;;;;;;;;;;;;;;2.43;73.83;99088.44;4955282;29;19942;-85
2021/11/25 11:48:15;;;;;;;;;;;;;;;2.46;73.83;99072.69;4955169;28;20389;-84
2021/11/25 11:50:49;;;;;;;;;;;;;;;2.48;74.01;99080.50;4953962;28;19926;-84
2021/11/25 11:53:17;;;;;;;;;;;;;;;2.53;74.13;99082.13;4953352;28;19922;-84
2021/11/25 11:55:48;;;;;;;;;;;;;;;2.51;73.92;99081.31;4954779;29;19974;-84
2021/11/25 11:58:25;;;;;;;;;;;;;;;2.53;73.69;99078.66;4937299;29;19922;-88
2021/11/25 12:00:52;;;;;;;;;;;;;;;2.77;74.09;99082.47;4953688;28;19919;-85
2021/11/25 12:03:31;;;;;;;;;;;;;;;2.65;74.24;99072.28;4955041;28;19918;-84
2021/11/25 12:05:56;;;;;;;;;;;;;;;2.63;74.27;99071.47;4953689;29;20017;-85
2021/11/25 12:08:24;;;;;;;;;;;;;;;2.65;74.24;99070.56;4954976;28;19966;-83
2021/11/25 12:10:58;;;;;;;;;;;;;;;2.64;74.13;99070.59;4937562;29;19930;-84
2021/11/25 12:13:25;;;;;;;;;;;;;;;2.65;74.03;99056.59;4936938;29;20005;-84
2021/11/25 12:15:50;;;;;;;;;;;;;;;2.65;73.89;99061.81;4954623;28;19926;-83
2021/11/25 12:18:31;;;;;;;;;;;;;;;2.66;74.01;99056.56;4954827;28;19922;-84
2021/11/25 12:20:58;;;;;;;;;;;;;;;2.70;73.97;99052.13;4953491;28;19919;-83
2021/11/25 12:23:33;;;;;;;;;;;;;;;2.69;73.90;99053.03;4954018;28;19918;-85
2021/11/25 12:25:59;;;;;;;;;;;;;;;2.73;74.05;99055.53;4954555;29;20310;-85
2021/11/25 12:28:27;;;;;;;;;;;;;;;2.74;73.83;99056.38;4954642;28;19923;-83
2021/11/25 12:31:07;;;;;;;;;;;;;;;2.75;73.74;99049.41;4954752;28;19953;-89
2021/11/25 12:33:37;;;;;;;;;;;;;;;2.77;73.84;99047.63;4954742;28;19919;-86
2021/11/25 12:36:02;;;;;;;;;;;;;;;2.78;73.91;99038.88;4953270;28;19914;-85
2021/11/25 12:38:34;;;;;;;;;;;;;;;2.76;73.64;99035.41;4937091;29;19923;-83
2021/11/25 12:41:00;;;;;;;;;;;;;;;2.79;73.74;99033.59;4954327;28;20016;-83
2021/11/25 12:43:28;;;;;;;;;;;;;;;2.81;73.72;99021.34;4954407;28;20255;-87
2021/11/25 12:45:54;;;;;;;;;;;;;;;2.82;73.46;99022.19;4954166;29;20073;-87
2021/11/25 12:48:21;;;;;;;;;;;;;;;2.82;73.58;99024.81;4937091;29;19922;-84
2021/11/25 12:50:53;;;;;;;;;;;;;;;3.01;74.48;99025.25;4931078;29;20099;-84
2021/11/25 12:53:20;;;;;;;;;;;;;;;3.21;76.43;99015.16;4952671;29;20001;-85
2021/11/25 12:55:50;;;;;;;;;;;;;;;3.37;78.49;99026.09;4936140;28;19922;-84
2021/11/25 12:58:15;;;;;;;;;;;;;;;3.44;80.30;99030.25;4947947;28;19919;-85
2021/11/25 13:00:43;;;;;;;;;;;;;;;3.49;81.75;99026.66;4936871;29;19918;-84
2021/11/25 13:03:19;;;;;;;;;;;;;;;3.51;83.03;99017.00;4953798;28;20266;-84
2021/11/25 13:05:46;;;;;;;;;;;;;;;3.48;84.36;99015.34;4952481;28;20267;-84
2021/11/25 13:08:21;;;;;;;;;;;;;;;3.46;85.41;99019.75;4936667;29;20278;-85
2021/11/25 13:10:46;;;;;;;;;;;;;;;3.41;86.30;99006.75;4935812;29;19918;-85
2021/11/25 13:13:13;;;;;;;;;;;;;;;3.39;87.32;99005.94;4953834;28;19973;-83
2021/11/25 13:15:40;;;;;;;;;;;;;;;3.36;88.32;99005.19;4936427;28;19925;-84
2021/11/25 13:18:05;;;;;;;;;;;;;;;3.32;89.27;99007.03;4936536;29;19925;-84
2021/11/25 13:20:41;;;;;;;;;;;;;;;3.29;90.27;98999.25;4935294;28;20411;-84
2021/11/25 13:23:06;;;;;;;;;;;;;;;3.25;91.41;99005.44;4948418;29;20410;-85
2021/11/25 13:25:31;;;;;;;;;;;;;;;3.21;92.75;98998.59;4936549;29;19982;-85
2021/11/25 13:27:56;;;;;;;;;;;;;;;3.20;93.88;99007.31;4953826;28;20013;-85
2021/11/25 13:30:22;;;;;;;;;;;;;;;3.29;95.09;99001.88;4936046;29;20378;-84
2021/11/25 13:32:50;;;;;;;;;;;;;;;3.37;96.33;98999.91;4936600;28;19929;-84
2021/11/25 13:35:16;;;;;;;;;;;;;;;3.53;98.61;99000.34;4951260;28;19946;-84
2021/11/25 13:37:50;;;;;;;;;;;;;;;3.69;100.00;98989.47;4953769;28;19925;-84
2021/11/25 13:40:16;;;;;;;;;;;;;;;3.87;100.00;98994.19;4952419;29;20009;-84
2021/11/25 13:42:44;;;;;;;;;;;;;;;3.92;100.00;98992.28;4953727;28;19983;-84
2021/11/25 13:45:10;;;;;;;;;;;;;;;4.02;100.00;98998.16;4951664;29;19918;-85
2021/11/25 13:47:36;;;;;;;;;;;;;;;4.10;100.00;98996.16;4952193;28;19973;-85
2021/11/25 13:50:13;;;;;;;;;;;;;;;4.14;100.00;98986.44;4934940;29;19986;-86
2021/11/25 13:52:38;;;;;;;;;;;;;;;4.20;100.00;98975.78;4936255;29;19965;-85
2021/11/25 13:55:05;;;;;;;;;;;;;;;4.28;100.00;98980.78;4953627;28;20323;-88
2021/11/25 13:57:30;;;;;;;;;;;;;;;4.30;100.00;98986.84;4952742;28;19915;-84
2021/11/25 13:59:56;;;;;;;;;;;;;;;4.31;100.00;98984.16;4937252;29;19923;-85
2021/11/25 14:02:23;;;;;;;;;;;;;;;4.36;100.00;98978.78;4936411;29;19918;-88
2021/11/25 14:04:54;;;;;;;;;;;;;;;4.41;100.00;98981.28;4951557;28;20017;-84
2021/11/25 14:07:20;;;;;;;;;;;;;;;4.44;100.00;98979.41;4951350;29;20270;-86
2021/11/25 14:09:45;;;;;;;;;;;;;;;4.45;100.00;98991.63;4936135;28;19918;-85
2021/11/25 14:12:17;;;;;;;;;;;;;;;4.48;100.00;98990.66;4953431;28;19926;-85
2021/11/25 14:14:44;;;;;;;;;;;;;;;4.49;100.00;98993.25;4936078;28;19930;-88
2021/11/25 14:17:17;;;;;;;;;;;;;;;4.57;100.00;98989.53;4956644;28;20352;-88
2021/11/25 14:19:43;;;;;;;;;;;;;;;4.60;100.00;98992.06;4955050;28;19930;-88
2021/11/25 14:22:19;;;;;;;;;;;;;;;4.63;100.00;99000.69;4951225;28;20393;-84
2021/11/25 14:24:46;;;;;;;;;;;;;;;4.65;100.00;98998.03;4955037;28;20437;-86
2021/11/25 14:32:33;;;;;;;;;;;;;;;3.43;100.00;99004.97;4957152;28;19941;-84
2021/11/25 14:34:58;;;;;;;;;;;;;;;3.30;100.00;99003.56;4953811;28;19924;-84
2021/11/25 14:37:29;;;;;;;;;;;;;;;3.24;100.00;99001.97;4939417;29;20329;-84
2021/11/25 14:39:54;;;;;;;;;;;;;;;3.14;100.00;99002.25;4939236;28;20400;-86
2021/11/25 14:42:21;;;;;;;;;;;;;;;3.13;98.68;99003.13;4939336;29;20009;-84
2021/11/25 14:44:47;;;;;;;;;;;;;;;3.06;97.04;99012.91;4956468;28;19922;-84
2021/11/25 14:47:16;;;;;;;;;;;;;;;2.99;95.66;99014.81;4954358;29;20017;-85
2021/11/25 14:49:42;;;;;;;;;;;;;;;2.87;94.24;99015.97;4938939;28;20005;-85
2021/11/25 14:52:10;;;;;;;;;;;;;;;2.85;92.93;99020.38;4937756;29;19929;-86
2021/11/25 14:54:36;;;;;;;;;;;;;;;2.82;91.94;99009.13;4954653;28;19969;-87
2021/11/25 14:57:01;;;;;;;;;;;;;;;2.81;90.77;99016.13;4956191;28;20421;-86
2021/11/25 14:59:27;;;;;;;;;;;;;;;2.68;90.07;99012.94;4939217;28;19923;-86
2021/11/25 15:01:53;;;;;;;;;;;;;;;2.73;89.33;99023.28;4956258;29;19967;-86
2021/11/25 15:04:19;;;;;;;;;;;;;;;2.61;88.37;99024.41;4956047;29;19965;-87
2021/11/25 15:06:47;;;;;;;;;;;;;;;2.57;87.86;99025.41;4954075;28;20021;-87
2021/11/25 15:09:19;;;;;;;;;;;;;;;2.50;87.03;99022.03;4939062;29;19966;-85
2021/11/25 15:11:45;;;;;;;;;;;;;;;2.51;86.57;99020.28;4938792;28;19969;-84
2021/11/25 15:14:12;;;;;;;;;;;;;;;2.44;85.79;99021.31;4938847;29;19969;-84
2021/11/25 15:16:38;;;;;;;;;;;;;;;2.38;85.73;99018.81;4938656;29;19915;-84
2021/11/25 15:19:04;;;;;;;;;;;;;;;2.34;85.20;99026.72;4954644;29;19925;-85
2021/11/25 15:21:29;;;;;;;;;;;;;;;2.29;85.19;99020.75;4937476;29;19918;-84
2021/11/25 15:23:55;;;;;;;;;;;;;;;2.30;84.97;99025.09;4938597;28;19921;-84
2021/11/25 15:26:20;;;;;;;;;;;;;;;2.22;84.85;99021.78;4938470;29;19922;-85
2021/11/25 15:28:45;;;;;;;;;;;;;;;2.21;84.58;99025.28;4955755;28;20005;-85
2021/11/25 15:31:11;;;;;;;;;;;;;;;2.13;84.48;99030.66;4938583;29;19926;-86
2021/11/25 15:33:36;;;;;;;;;;;;;;;2.16;84.25;99037.59;4938322;29;19923;-85
2021/11/25 15:36:08;;;;;;;;;;;;;;;2.13;84.08;99038.50;4937105;28;19989;-85
2021/11/25 15:38:35;;;;;;;;;;;;;;;2.05;84.04;99034.34;4938307;29;20016;-87
2021/11/25 15:41:00;;;;;;;;;;;;;;;2.07;83.92;99032.56;4937562;28;20422;-89
2021/11/25 15:43:26;;;;;;;;;;;;;;;1.99;83.71;99030.97;4955543;28;20136;-88
2021/11/25 15:45:51;;;;;;;;;;;;;;;2.02;83.77;99037.88;4938025;29;19918;-83
2021/11/25 15:48:17;;;;;;;;;;;;;;;2.06;83.68;99036.94;4955553;28;19919;-85
2021/11/25 15:50:42;;;;;;;;;;;;;;;2.04;83.55;99036.06;4954201;28;19930;-88
2021/11/25 15:53:09;;;;;;;;;;;;;;;1.93;83.50;99038.94;4952913;29;19926;-84
2021/11/25 15:55:35;;;;;;;;;;;;;;;1.97;83.68;99037.97;4938025;29;19924;-85
2021/11/25 15:58:01;;;;;;;;;;;;;;;1.89;83.51;99034.63;4937988;28;19922;-85
2021/11/25 16:00:27;;;;;;;;;;;;;;;1.84;83.57;99035.63;4954311;28;20294;-88
2021/11/25 16:02:52;;;;;;;;;;;;;;;1.84;83.43;99043.47;4933422;28;20029;-84
2021/11/25 16:05:17;;;;;;;;;;;;;;;1.79;83.40;99046.16;4936652;29;20422;-89
2021/11/25 16:07:43;;;;;;;;;;;;;;;1.85;83.22;99047.78;4937787;29;20285;-86
2021/11/25 16:10:08;;;;;;;;;;;;;;;1.77;83.12;99053.16;4937696;28;19934;-85
2021/11/25 16:12:34;;;;;;;;;;;;;;;1.83;82.85;99054.81;4937704;29;19980;-88
2021/11/25 16:14:59;;;;;;;;;;;;;;;1.85;82.86;99061.72;4952608;28;19965;-89
2021/11/25 16:17:25;;;;;;;;;;;;;;;1.91;82.66;99061.59;4937429;29;19918;-87
2021/11/25 16:19:51;;;;;;;;;;;;;;;1.89;82.34;99054.69;4936975;28;19970;-85
2021/11/25 16:22:17;;;;;;;;;;;;;;;1.72;82.63;99050.63;4937014;29;19950;-85
2021/11/25 16:24:43;;;;;;;;;;;;;;;1.76;82.77;99048.84;4937592;29;19970;-89
2021/11/25 16:27:09;;;;;;;;;;;;;;;1.77;82.57;99054.03;4952993;29;20326;-87
2021/11/25 16:29:34;;;;;;;;;;;;;;;1.63;82.58;99049.06;4954748;29;19925;-86
2021/11/25 16:32:00;;;;;;;;;;;;;;;1.62;82.56;99044.72;4954512;28;19915;-84
2021/11/25 16:34:26;;;;;;;;;;;;;;;1.70;82.52;99048.94;4932600;29;19923;-89
2021/11/25 16:36:51;;;;;;;;;;;;;;;1.65;82.25;99040.34;4936152;29;20013;-86
2021/11/25 16:39:17;;;;;;;;;;;;;;;1.55;82.24;99045.72;4936809;29;19961;-85
2021/11/25 16:41:42;;;;;;;;;;;;;;;1.71;82.19;99035.88;4937331;29;19918;-88
2021/11/25 16:44:08;;;;;;;;;;;;;;;1.65;82.20;99040.34;4937068;28;19914;-85
2021/11/25 16:49:07;;;;;;;;;;;;;;;1.63;82.30;99042.97;4954285;28;19925;-85
2021/11/25 16:51:33;;;;;;;;;;;;;;;1.60;82.23;99040.44;4935803;29;19926;-84
2021/11/25 16:53:58;;;;;;;;;;;;;;;1.58;81.95;99032.63;4937049;28;19941;-88
2021/11/25 16:56:23;;;;;;;;;;;;;;;1.53;82.05;99037.06;4937128;29;20097;-89
2021/11/25 16:58:48;;;;;;;;;;;;;;;1.58;82.10;99036.97;4936335;29;19997;-85
2021/11/25 17:01:14;;;;;;;;;;;;;;;1.48;81.96;99038.88;4954237;28;19922;-88
2021/11/25 17:03:39;;;;;;;;;;;;;;;1.52;81.88;99045.78;4953965;28;19922;-85
2021/11/25 17:06:05;;;;;;;;;;;;;;;1.51;81.83;99044.03;4935211;28;19922;-87
2021/11/25 17:08:32;;;;;;;;;;;;;;;1.53;81.68;99042.28;4936780;29;20397;-85
2021/11/25 17:11:00;;;;;;;;;;;;;;;1.47;81.56;99037.19;4954031;28;20021;-83
2021/11/25 17:13:27;;;;;;;;;;;;;;;1.45;81.72;99044.16;4936158;29;19929;-84
2021/11/25 17:15:53;;;;;;;;;;;;;;;1.45;81.70;99044.16;4952271;28;19915;-87
2021/11/25 17:18:18;;;;;;;;;;;;;;;1.51;81.75;99049.28;4936354;28;19977;-89
2021/11/25 17:20:44;;;;;;;;;;;;;;;1.47;81.67;99059.78;4952706;28;20400;-84
2021/11/25 17:23:10;;;;;;;;;;;;;;;1.47;81.59;99060.69;4936514;29;19950;-84
2021/11/25 17:25:35;;;;;;;;;;;;;;;1.42;81.37;99060.75;4936665;29;19930;-86
2021/11/25 17:28:00;;;;;;;;;;;;;;;1.44;81.33;99071.16;4936370;29;19919;-86
2021/11/25 17:30:27;;;;;;;;;;;;;;;1.45;81.43;99072.88;4936475;29;20044;-86
2021/11/25 17:32:53;;;;;;;;;;;;;;;1.40;81.33;99078.16;4936540;29;19919;-88
2021/11/25 17:35:18;;;;;;;;;;;;;;;1.39;81.26;99086.06;4935244;28;20001;-89
2021/11/25 17:37:44;;;;;;;;;;;;;;;1.43;81.21;99082.50;4936503;29;20255;-84
2021/11/25 17:40:10;;;;;;;;;;;;;;;1.36;81.11;99086.09;4936293;29;20359;-87
2021/11/25 17:42:36;;;;;;;;;;;;;;;1.40;81.27;99085.16;4952855;28;20021;-84
2021/11/25 17:45:01;;;;;;;;;;;;;;;1.37;81.31;99082.59;4936121;29;20430;-85
2021/11/25 17:47:26;;;;;;;;;;;;;;;1.38;81.29;99089.53;4953639;29;20438;-85
2021/11/25 17:49:52;;;;;;;;;;;;;;;1.39;80.97;99088.66;4935547;29;19919;-85
2021/11/25 17:52:17;;;;;;;;;;;;;;;1.33;81.03;99081.78;4934540;28;19927;-84
2021/11/25 17:54:42;;;;;;;;;;;;;;;1.30;80.91;99091.44;4940459;29;19925;-85
2021/11/25 17:57:08;;;;;;;;;;;;;;;1.29;80.85;99087.06;4940185;28;19926;-84
2021/11/25 17:59:33;;;;;;;;;;;;;;;1.26;80.80;99091.47;4940515;28;20092;-84
2021/11/25 18:01:58;;;;;;;;;;;;;;;1.32;80.79;99092.25;4939991;29;19944;-87
2021/11/25 18:04:24;;;;;;;;;;;;;;;1.25;80.85;99087.13;4955991;28;19923;-88
2021/11/25 18:06:49;;;;;;;;;;;;;;;1.24;80.89;99080.16;4956035;28;19922;-88
2021/11/25 18:09:14;;;;;;;;;;;;;;;1.31;80.80;99086.19;4939941;28;19930;-86
2021/11/25 18:11:40;;;;;;;;;;;;;;;1.26;80.82;99091.47;4957231;28;19922;-87
2021/11/25 18:14:05;;;;;;;;;;;;;;;1.30;80.64;99097.50;4957024;28;20182;-85
2021/11/25 18:16:31;;;;;;;;;;;;;;;1.24;80.89;99094.97;4939921;29;19945;-84
2021/11/25 18:18:58;;;;;;;;;;;;;;;1.25;80.81;99099.31;4939563;29;19923;-84
2021/11/25 18:21:23;;;;;;;;;;;;;;;1.22;80.67;99088.94;4938431;29;19922;-88
2021/11/25 18:23:51;;;;;;;;;;;;;;;1.19;80.52;99084.63;4934823;29;19941;-89
2021/11/25 18:26:21;;;;;;;;;;;;;;;1.17;80.55;99086.41;4956552;28;19926;-88
2021/11/25 18:28:47;;;;;;;;;;;;;;;1.20;80.41;99082.88;4955389;28;19918;-85
2021/11/25 18:31:13;;;;;;;;;;;;;;;1.20;80.38;99078.50;4939487;28;19921;-84
2021/11/25 18:33:39;;;;;;;;;;;;;;;1.23;80.36;99077.63;4939485;29;19918;-85
2021/11/25 18:36:05;;;;;;;;;;;;;;;1.19;80.19;99081.16;4938076;29;19930;-84
2021/11/25 18:38:30;;;;;;;;;;;;;;;1.17;80.23;99077.72;4939541;29;19914;-84
2021/11/25 18:40:56;;;;;;;;;;;;;;;1.18;80.05;99082.03;4956375;28;19918;-88
2021/11/25 18:43:22;;;;;;;;;;;;;;;1.16;79.97;99082.03;4939203;28;20009;-84
2021/11/25 18:45:47;;;;;;;;;;;;;;;1.16;79.88;99084.66;4939137;29;20333;-84
2021/11/25 18:48:12;;;;;;;;;;;;;;;1.19;79.94;99082.00;4939268;29;19922;-83
2021/11/25 18:50:40;;;;;;;;;;;;;;;1.16;79.76;99089.03;4938012;29;19958;-85
2021/11/25 18:53:05;;;;;;;;;;;;;;;1.20;79.62;99085.50;4935700;29;19938;-85
2021/11/25 18:55:31;;;;;;;;;;;;;;;1.17;79.73;99078.56;4935113;29;20301;-90
2021/11/25 18:57:56;;;;;;;;;;;;;;;1.18;79.77;99082.03;4935712;29;19977;-87
2021/11/25 19:00:21;;;;;;;;;;;;;;;1.17;79.64;99080.31;4935450;29;20011;-89
2021/11/25 19:02:47;;;;;;;;;;;;;;;1.15;79.42;99082.94;4935563;29;19923;-85
2021/11/25 19:05:13;;;;;;;;;;;;;;;1.13;79.35;99079.47;4934361;29;20166;-87